sensor_id;sensor_type;location;lat;lon;timestamp;P1;durP1;ratioP1;P2;durP2;ratioP2
15271;SDS011;7737;51.578;7.268;2023-02-25T00:00:11;10.27;;;2.27;;
15271;SDS011;7737;51.578;7.268;2023-02-25T00:02:43;12.07;;;2.60;;
15271;SDS011;7737;51.578;7.268;2023-02-25T00:05:09;7.80;;;1.83;;
15271;SDS011;7737;51.578;7.268;2023-02-25T00:07:37;14.73;;;2.27;;
15271;SDS011;7737;51.578;7.268;2023-02-25T00:10:05;14.00;;;2.30;;
15271;SDS011;7737;51.578;7.268;2023-02-25T00:12:32;12.93;;;2.40;;
15271;SDS011;7737;51.578;7.268;2023-02-25T00:14:59;13.43;;;2.40;;
15271;SDS011;7737;51.578;7.268;2023-02-25T00:17:25;11.43;;;2.50;;
15271;SDS011;7737;51.578;7.268;2023-02-25T00:19:51;11.47;;;2.07;;
15271;SDS011;7737;51.578;7.268;2023-02-25T00:22:19;11.80;;;2.50;;
15271;SDS011;7737;51.578;7.268;2023-02-25T00:24:46;11.00;;;2.17;;
15271;SDS011;7737;51.578;7.268;2023-02-25T00:27:17;13.37;;;2.70;;
15271;SDS011;7737;51.578;7.268;2023-02-25T00:29:44;10.43;;;2.10;;
15271;SDS011;7737;51.578;7.268;2023-02-25T00:32:10;12.30;;;2.40;;
15271;SDS011;7737;51.578;7.268;2023-02-25T00:34:37;11.27;;;1.97;;
15271;SDS011;7737;51.578;7.268;2023-02-25T00:37:04;9.83;;;1.97;;
15271;SDS011;7737;51.578;7.268;2023-02-25T00:39:30;10.20;;;2.00;;
15271;SDS011;7737;51.578;7.268;2023-02-25T00:42:08;11.87;;;2.40;;
15271;SDS011;7737;51.578;7.268;2023-02-25T00:44:35;11.83;;;2.00;;
15271;SDS011;7737;51.578;7.268;2023-02-25T00:47:02;10.37;;;2.00;;
15271;SDS011;7737;51.578;7.268;2023-02-25T00:49:29;10.30;;;2.13;;
15271;SDS011;7737;51.578;7.268;2023-02-25T00:51:56;13.13;;;2.80;;
15271;SDS011;7737;51.578;7.268;2023-02-25T00:54:22;10.57;;;1.80;;
15271;SDS011;7737;51.578;7.268;2023-02-25T00:56:49;14.17;;;2.60;;
15271;SDS011;7737;51.578;7.268;2023-02-25T00:59:17;8.93;;;2.00;;
15271;SDS011;7737;51.578;7.268;2023-02-25T01:01:43;12.43;;;2.07;;
15271;SDS011;7737;51.578;7.268;2023-02-25T01:04:10;10.97;;;2.50;;
15271;SDS011;7737;51.578;7.268;2023-02-25T01:06:36;11.37;;;1.80;;
15271;SDS011;7737;51.578;7.268;2023-02-25T01:09:03;10.87;;;2.10;;
15271;SDS011;7737;51.578;7.268;2023-02-25T01:11:32;13.03;;;2.07;;
15271;SDS011;7737;51.578;7.268;2023-02-25T01:14:01;12.70;;;2.17;;
15271;SDS011;7737;51.578;7.268;2023-02-25T01:16:31;12.63;;;2.10;;
15271;SDS011;7737;51.578;7.268;2023-02-25T01:19:00;13.93;;;2.10;;
15271;SDS011;7737;51.578;7.268;2023-02-25T01:21:29;14.47;;;2.20;;
15271;SDS011;7737;51.578;7.268;2023-02-25T01:23:58;12.57;;;2.70;;
15271;SDS011;7737;51.578;7.268;2023-02-25T01:26:27;18.93;;;2.50;;
15271;SDS011;7737;51.578;7.268;2023-02-25T01:28:56;12.30;;;2.47;;
15271;SDS011;7737;51.578;7.268;2023-02-25T01:31:23;11.57;;;2.23;;
15271;SDS011;7737;51.578;7.268;2023-02-25T01:33:54;11.37;;;2.20;;
15271;SDS011;7737;51.578;7.268;2023-02-25T01:36:22;16.73;;;2.57;;
15271;SDS011;7737;51.578;7.268;2023-02-25T01:38:49;13.10;;;2.40;;
15271;SDS011;7737;51.578;7.268;2023-02-25T01:41:15;15.00;;;2.50;;
15271;SDS011;7737;51.578;7.268;2023-02-25T01:43:42;12.93;;;2.70;;
15271;SDS011;7737;51.578;7.268;2023-02-25T01:46:09;11.87;;;2.87;;
15271;SDS011;7737;51.578;7.268;2023-02-25T01:48:35;14.47;;;2.70;;
15271;SDS011;7737;51.578;7.268;2023-02-25T01:51:07;12.93;;;2.63;;
15271;SDS011;7737;51.578;7.268;2023-02-25T01:53:37;14.80;;;2.50;;
15271;SDS011;7737;51.578;7.268;2023-02-25T01:56:07;13.00;;;2.33;;
15271;SDS011;7737;51.578;7.268;2023-02-25T01:58:36;12.33;;;2.03;;
15271;SDS011;7737;51.578;7.268;2023-02-25T02:01:05;11.53;;;2.03;;
15271;SDS011;7737;51.578;7.268;2023-02-25T02:03:33;11.43;;;2.37;;
15271;SDS011;7737;51.578;7.268;2023-02-25T02:06:02;11.13;;;1.87;;
15271;SDS011;7737;51.578;7.268;2023-02-25T02:08:33;10.53;;;1.93;;
15271;SDS011;7737;51.578;7.268;2023-02-25T02:11:01;11.30;;;1.93;;
15271;SDS011;7737;51.578;7.268;2023-02-25T02:13:28;15.77;;;2.40;;
15271;SDS011;7737;51.578;7.268;2023-02-25T02:16:00;8.63;;;1.90;;
15271;SDS011;7737;51.578;7.268;2023-02-25T02:18:37;15.20;;;2.13;;
15271;SDS011;7737;51.578;7.268;2023-02-25T02:21:16;8.80;;;1.80;;
15271;SDS011;7737;51.578;7.268;2023-02-25T02:23:58;13.47;;;2.17;;
15271;SDS011;7737;51.578;7.268;2023-02-25T02:26:45;16.57;;;2.00;;
15271;SDS011;7737;51.578;7.268;2023-02-25T02:29:22;9.67;;;2.00;;
15271;SDS011;7737;51.578;7.268;2023-02-25T02:32:13;9.67;;;2.20;;
15271;SDS011;7737;51.578;7.268;2023-02-25T02:34:47;13.97;;;2.10;;
15271;SDS011;7737;51.578;7.268;2023-02-25T02:37:28;13.27;;;2.40;;
15271;SDS011;7737;51.578;7.268;2023-02-25T02:40:15;10.93;;;2.23;;
15271;SDS011;7737;51.578;7.268;2023-02-25T02:42:50;9.57;;;2.03;;
15271;SDS011;7737;51.578;7.268;2023-02-25T02:45:24;11.27;;;2.13;;
15271;SDS011;7737;51.578;7.268;2023-02-25T02:47:56;11.97;;;2.27;;
15271;SDS011;7737;51.578;7.268;2023-02-25T02:50:28;12.70;;;2.00;;
15271;SDS011;7737;51.578;7.268;2023-02-25T02:53:00;12.90;;;2.57;;
15271;SDS011;7737;51.578;7.268;2023-02-25T02:55:31;13.60;;;2.27;;
15271;SDS011;7737;51.578;7.268;2023-02-25T02:58:02;14.77;;;2.43;;
15271;SDS011;7737;51.578;7.268;2023-02-25T03:00:35;13.03;;;2.60;;
15271;SDS011;7737;51.578;7.268;2023-02-25T03:03:07;11.67;;;2.17;;
15271;SDS011;7737;51.578;7.268;2023-02-25T03:05:38;12.13;;;2.23;;
15271;SDS011;7737;51.578;7.268;2023-02-25T03:08:07;13.87;;;2.50;;
15271;SDS011;7737;51.578;7.268;2023-02-25T03:10:37;15.17;;;2.43;;
15271;SDS011;7737;51.578;7.268;2023-02-25T03:13:03;11.80;;;2.20;;
15271;SDS011;7737;51.578;7.268;2023-02-25T03:15:30;11.40;;;2.60;;
15271;SDS011;7737;51.578;7.268;2023-02-25T03:17:59;13.70;;;2.50;;
15271;SDS011;7737;51.578;7.268;2023-02-25T03:20:33;12.60;;;2.63;;
15271;SDS011;7737;51.578;7.268;2023-02-25T03:23:03;12.90;;;2.77;;
15271;SDS011;7737;51.578;7.268;2023-02-25T03:25:36;12.07;;;2.60;;
15271;SDS011;7737;51.578;7.268;2023-02-25T03:28:14;13.43;;;2.80;;
15271;SDS011;7737;51.578;7.268;2023-02-25T03:30:47;13.57;;;2.90;;
15271;SDS011;7737;51.578;7.268;2023-02-25T03:33:20;12.77;;;2.77;;
15271;SDS011;7737;51.578;7.268;2023-02-25T03:35:53;15.70;;;2.40;;
15271;SDS011;7737;51.578;7.268;2023-02-25T03:38:22;14.70;;;2.77;;
15271;SDS011;7737;51.578;7.268;2023-02-25T03:40:52;17.33;;;2.97;;
15271;SDS011;7737;51.578;7.268;2023-02-25T03:43:23;16.10;;;2.60;;
15271;SDS011;7737;51.578;7.268;2023-02-25T03:45:53;14.90;;;2.37;;
15271;SDS011;7737;51.578;7.268;2023-02-25T03:48:21;15.33;;;2.87;;
15271;SDS011;7737;51.578;7.268;2023-02-25T03:50:50;14.70;;;2.43;;
15271;SDS011;7737;51.578;7.268;2023-02-25T03:53:23;16.03;;;3.07;;
15271;SDS011;7737;51.578;7.268;2023-02-25T03:55:50;14.67;;;2.90;;
15271;SDS011;7737;51.578;7.268;2023-02-25T03:58:18;18.80;;;2.50;;
15271;SDS011;7737;51.578;7.268;2023-02-25T04:00:45;14.90;;;2.93;;
15271;SDS011;7737;51.578;7.268;2023-02-25T04:03:15;17.27;;;2.37;;
15271;SDS011;7737;51.578;7.268;2023-02-25T04:05:42;16.03;;;2.60;;
15271;SDS011;7737;51.578;7.268;2023-02-25T04:08:10;19.07;;;3.07;;
15271;SDS011;7737;51.578;7.268;2023-02-25T04:10:40;15.10;;;2.73;;
15271;SDS011;7737;51.578;7.268;2023-02-25T04:13:07;12.53;;;2.23;;
15271;SDS011;7737;51.578;7.268;2023-02-25T04:15:34;17.60;;;2.67;;
15271;SDS011;7737;51.578;7.268;2023-02-25T04:18:01;15.20;;;2.70;;
15271;SDS011;7737;51.578;7.268;2023-02-25T04:20:28;12.47;;;2.23;;
15271;SDS011;7737;51.578;7.268;2023-02-25T04:22:55;15.63;;;2.50;;
15271;SDS011;7737;51.578;7.268;2023-02-25T04:25:23;14.00;;;2.40;;
15271;SDS011;7737;51.578;7.268;2023-02-25T04:27:50;12.53;;;2.90;;
15271;SDS011;7737;51.578;7.268;2023-02-25T04:30:17;15.43;;;2.43;;
15271;SDS011;7737;51.578;7.268;2023-02-25T04:32:44;16.77;;;2.70;;
15271;SDS011;7737;51.578;7.268;2023-02-25T04:35:11;11.80;;;2.43;;
15271;SDS011;7737;51.578;7.268;2023-02-25T04:37:38;15.83;;;2.70;;
15271;SDS011;7737;51.578;7.268;2023-02-25T04:40:05;15.07;;;2.60;;
15271;SDS011;7737;51.578;7.268;2023-02-25T04:42:37;15.50;;;2.57;;
15271;SDS011;7737;51.578;7.268;2023-02-25T04:45:04;12.30;;;2.53;;
15271;SDS011;7737;51.578;7.268;2023-02-25T04:47:31;15.43;;;2.50;;
15271;SDS011;7737;51.578;7.268;2023-02-25T04:49:58;12.97;;;2.37;;
15271;SDS011;7737;51.578;7.268;2023-02-25T04:52:24;14.03;;;2.57;;
15271;SDS011;7737;51.578;7.268;2023-02-25T04:54:52;15.07;;;2.90;;
15271;SDS011;7737;51.578;7.268;2023-02-25T04:57:18;15.57;;;2.60;;
15271;SDS011;7737;51.578;7.268;2023-02-25T04:59:46;12.90;;;2.80;;
15271;SDS011;7737;51.578;7.268;2023-02-25T05:02:13;14.83;;;2.30;;
15271;SDS011;7737;51.578;7.268;2023-02-25T05:04:40;16.10;;;2.70;;
15271;SDS011;7737;51.578;7.268;2023-02-25T05:07:06;18.83;;;2.80;;
15271;SDS011;7737;51.578;7.268;2023-02-25T05:09:33;15.77;;;2.37;;
15271;SDS011;7737;51.578;7.268;2023-02-25T05:12:00;13.13;;;2.63;;
15271;SDS011;7737;51.578;7.268;2023-02-25T05:14:27;13.17;;;2.20;;
15271;SDS011;7737;51.578;7.268;2023-02-25T05:16:55;17.70;;;2.73;;
15271;SDS011;7737;51.578;7.268;2023-02-25T05:19:22;14.73;;;2.73;;
15271;SDS011;7737;51.578;7.268;2023-02-25T05:21:51;20.20;;;2.80;;
15271;SDS011;7737;51.578;7.268;2023-02-25T05:24:18;18.43;;;3.33;;
15271;SDS011;7737;51.578;7.268;2023-02-25T05:26:47;14.50;;;2.47;;
15271;SDS011;7737;51.578;7.268;2023-02-25T05:29:15;15.57;;;2.73;;
15271;SDS011;7737;51.578;7.268;2023-02-25T05:31:42;17.10;;;2.97;;
15271;SDS011;7737;51.578;7.268;2023-02-25T05:34:10;16.73;;;3.00;;
15271;SDS011;7737;51.578;7.268;2023-02-25T05:36:36;15.67;;;2.90;;
15271;SDS011;7737;51.578;7.268;2023-02-25T05:39:03;11.77;;;2.10;;
15271;SDS011;7737;51.578;7.268;2023-02-25T05:41:30;11.90;;;2.67;;
15271;SDS011;7737;51.578;7.268;2023-02-25T05:43:57;13.73;;;2.60;;
15271;SDS011;7737;51.578;7.268;2023-02-25T05:46:23;14.30;;;2.57;;
15271;SDS011;7737;51.578;7.268;2023-02-25T05:48:50;14.77;;;2.67;;
15271;SDS011;7737;51.578;7.268;2023-02-25T05:51:18;12.40;;;2.60;;
15271;SDS011;7737;51.578;7.268;2023-02-25T05:53:47;13.10;;;2.90;;
15271;SDS011;7737;51.578;7.268;2023-02-25T05:56:15;14.73;;;2.50;;
15271;SDS011;7737;51.578;7.268;2023-02-25T05:58:42;16.50;;;2.63;;
15271;SDS011;7737;51.578;7.268;2023-02-25T06:01:11;15.50;;;2.83;;
15271;SDS011;7737;51.578;7.268;2023-02-25T06:03:39;13.90;;;2.40;;
15271;SDS011;7737;51.578;7.268;2023-02-25T06:06:07;15.97;;;2.53;;
15271;SDS011;7737;51.578;7.268;2023-02-25T06:08:38;18.17;;;2.67;;
15271;SDS011;7737;51.578;7.268;2023-02-25T06:11:06;15.17;;;2.90;;
15271;SDS011;7737;51.578;7.268;2023-02-25T06:13:33;13.20;;;2.43;;
15271;SDS011;7737;51.578;7.268;2023-02-25T06:16:01;12.63;;;2.10;;
15271;SDS011;7737;51.578;7.268;2023-02-25T06:18:29;15.73;;;2.60;;
15271;SDS011;7737;51.578;7.268;2023-02-25T06:21:01;13.00;;;2.60;;
15271;SDS011;7737;51.578;7.268;2023-02-25T06:23:29;15.43;;;2.80;;
15271;SDS011;7737;51.578;7.268;2023-02-25T06:25:57;14.77;;;2.77;;
15271;SDS011;7737;51.578;7.268;2023-02-25T06:28:24;14.57;;;2.60;;
15271;SDS011;7737;51.578;7.268;2023-02-25T06:30:51;14.90;;;3.20;;
15271;SDS011;7737;51.578;7.268;2023-02-25T06:33:17;13.00;;;2.70;;
15271;SDS011;7737;51.578;7.268;2023-02-25T06:35:44;13.97;;;2.80;;
15271;SDS011;7737;51.578;7.268;2023-02-25T06:38:10;17.23;;;2.70;;
15271;SDS011;7737;51.578;7.268;2023-02-25T06:40:37;17.07;;;2.80;;
15271;SDS011;7737;51.578;7.268;2023-02-25T06:43:05;14.53;;;2.70;;
15271;SDS011;7737;51.578;7.268;2023-02-25T06:45:31;15.27;;;2.40;;
15271;SDS011;7737;51.578;7.268;2023-02-25T06:47:58;17.90;;;2.97;;
15271;SDS011;7737;51.578;7.268;2023-02-25T06:50:24;16.67;;;3.00;;
15271;SDS011;7737;51.578;7.268;2023-02-25T06:52:51;19.57;;;2.77;;
15271;SDS011;7737;51.578;7.268;2023-02-25T06:55:17;14.73;;;2.63;;
15271;SDS011;7737;51.578;7.268;2023-02-25T06:57:44;17.57;;;3.07;;
15271;SDS011;7737;51.578;7.268;2023-02-25T07:00:13;16.63;;;2.80;;
15271;SDS011;7737;51.578;7.268;2023-02-25T07:02:40;16.50;;;3.00;;
15271;SDS011;7737;51.578;7.268;2023-02-25T07:05:07;14.60;;;2.83;;
15271;SDS011;7737;51.578;7.268;2023-02-25T07:07:34;13.10;;;2.43;;
15271;SDS011;7737;51.578;7.268;2023-02-25T07:10:00;16.43;;;2.97;;
15271;SDS011;7737;51.578;7.268;2023-02-25T07:12:27;15.83;;;2.90;;
15271;SDS011;7737;51.578;7.268;2023-02-25T07:14:55;16.40;;;2.70;;
15271;SDS011;7737;51.578;7.268;2023-02-25T07:17:24;15.03;;;2.40;;
15271;SDS011;7737;51.578;7.268;2023-02-25T07:19:50;15.37;;;3.00;;
15271;SDS011;7737;51.578;7.268;2023-02-25T07:22:17;17.30;;;3.23;;
15271;SDS011;7737;51.578;7.268;2023-02-25T07:24:44;19.07;;;2.97;;
15271;SDS011;7737;51.578;7.268;2023-02-25T07:27:11;21.43;;;3.70;;
15271;SDS011;7737;51.578;7.268;2023-02-25T07:29:38;13.27;;;2.93;;
15271;SDS011;7737;51.578;7.268;2023-02-25T07:32:05;17.80;;;3.53;;
15271;SDS011;7737;51.578;7.268;2023-02-25T07:34:34;13.77;;;3.00;;
15271;SDS011;7737;51.578;7.268;2023-02-25T07:37:01;15.57;;;3.20;;
15271;SDS011;7737;51.578;7.268;2023-02-25T07:39:27;14.60;;;3.00;;
15271;SDS011;7737;51.578;7.268;2023-02-25T07:41:54;17.97;;;3.67;;
15271;SDS011;7737;51.578;7.268;2023-02-25T07:44:20;16.33;;;3.27;;
15271;SDS011;7737;51.578;7.268;2023-02-25T07:46:47;17.83;;;3.50;;
15271;SDS011;7737;51.578;7.268;2023-02-25T07:49:14;11.83;;;3.10;;
15271;SDS011;7737;51.578;7.268;2023-02-25T07:51:42;14.47;;;2.83;;
15271;SDS011;7737;51.578;7.268;2023-02-25T07:54:08;15.03;;;3.27;;
15271;SDS011;7737;51.578;7.268;2023-02-25T07:56:35;16.93;;;3.00;;
15271;SDS011;7737;51.578;7.268;2023-02-25T07:59:01;16.27;;;3.37;;
15271;SDS011;7737;51.578;7.268;2023-02-25T08:01:29;15.77;;;3.30;;
15271;SDS011;7737;51.578;7.268;2023-02-25T08:03:58;19.90;;;3.67;;
15271;SDS011;7737;51.578;7.268;2023-02-25T08:06:28;13.73;;;3.40;;
15271;SDS011;7737;51.578;7.268;2023-02-25T08:08:56;17.40;;;3.33;;
15271;SDS011;7737;51.578;7.268;2023-02-25T08:11:23;18.00;;;3.53;;
15271;SDS011;7737;51.578;7.268;2023-02-25T08:13:51;14.73;;;3.10;;
15271;SDS011;7737;51.578;7.268;2023-02-25T08:16:18;15.23;;;3.03;;
15271;SDS011;7737;51.578;7.268;2023-02-25T08:18:46;16.83;;;3.40;;
15271;SDS011;7737;51.578;7.268;2023-02-25T08:21:14;17.30;;;2.90;;
15271;SDS011;7737;51.578;7.268;2023-02-25T08:23:43;13.57;;;3.00;;
15271;SDS011;7737;51.578;7.268;2023-02-25T08:26:11;17.57;;;3.33;;
15271;SDS011;7737;51.578;7.268;2023-02-25T08:28:39;17.27;;;3.03;;
15271;SDS011;7737;51.578;7.268;2023-02-25T08:31:06;13.37;;;3.00;;
15271;SDS011;7737;51.578;7.268;2023-02-25T08:33:35;16.90;;;3.30;;
15271;SDS011;7737;51.578;7.268;2023-02-25T08:36:06;16.53;;;3.30;;
15271;SDS011;7737;51.578;7.268;2023-02-25T08:38:34;16.90;;;2.93;;
15271;SDS011;7737;51.578;7.268;2023-02-25T08:41:01;14.83;;;3.40;;
15271;SDS011;7737;51.578;7.268;2023-02-25T08:43:29;15.53;;;2.67;;
15271;SDS011;7737;51.578;7.268;2023-02-25T08:45:56;13.70;;;2.37;;
15271;SDS011;7737;51.578;7.268;2023-02-25T08:48:23;10.70;;;2.70;;
15271;SDS011;7737;51.578;7.268;2023-02-25T08:50:50;12.20;;;2.40;;
15271;SDS011;7737;51.578;7.268;2023-02-25T08:53:17;11.43;;;2.00;;
15271;SDS011;7737;51.578;7.268;2023-02-25T08:55:43;10.57;;;2.20;;
15271;SDS011;7737;51.578;7.268;2023-02-25T08:58:11;10.70;;;2.03;;
15271;SDS011;7737;51.578;7.268;2023-02-25T09:00:39;9.30;;;1.70;;
15271;SDS011;7737;51.578;7.268;2023-02-25T09:03:05;8.83;;;2.10;;
15271;SDS011;7737;51.578;7.268;2023-02-25T09:05:32;9.23;;;2.20;;
15271;SDS011;7737;51.578;7.268;2023-02-25T09:08:01;7.30;;;1.77;;
15271;SDS011;7737;51.578;7.268;2023-02-25T09:10:28;7.67;;;1.93;;
15271;SDS011;7737;51.578;7.268;2023-02-25T09:12:56;6.93;;;1.73;;
15271;SDS011;7737;51.578;7.268;2023-02-25T09:15:23;8.03;;;1.80;;
15271;SDS011;7737;51.578;7.268;2023-02-25T09:17:51;10.33;;;1.87;;
15271;SDS011;7737;51.578;7.268;2023-02-25T09:20:18;8.90;;;1.93;;
15271;SDS011;7737;51.578;7.268;2023-02-25T09:22:44;8.27;;;1.67;;
15271;SDS011;7737;51.578;7.268;2023-02-25T09:25:11;5.60;;;1.80;;
15271;SDS011;7737;51.578;7.268;2023-02-25T09:27:38;6.97;;;1.53;;
15271;SDS011;7737;51.578;7.268;2023-02-25T09:30:04;8.43;;;1.60;;
15271;SDS011;7737;51.578;7.268;2023-02-25T09:32:32;7.60;;;1.77;;
15271;SDS011;7737;51.578;7.268;2023-02-25T09:35:00;5.50;;;1.60;;
15271;SDS011;7737;51.578;7.268;2023-02-25T09:37:31;10.10;;;1.87;;
15271;SDS011;7737;51.578;7.268;2023-02-25T09:39:58;8.70;;;1.87;;
15271;SDS011;7737;51.578;7.268;2023-02-25T09:42:25;5.83;;;1.53;;
15271;SDS011;7737;51.578;7.268;2023-02-25T09:44:58;6.90;;;1.90;;
15271;SDS011;7737;51.578;7.268;2023-02-25T09:47:27;6.33;;;1.50;;
15271;SDS011;7737;51.578;7.268;2023-02-25T09:49:59;6.80;;;1.60;;
15271;SDS011;7737;51.578;7.268;2023-02-25T09:52:31;7.97;;;1.70;;
15271;SDS011;7737;51.578;7.268;2023-02-25T09:55:02;6.40;;;1.80;;
15271;SDS011;7737;51.578;7.268;2023-02-25T09:57:34;7.00;;;1.67;;
15271;SDS011;7737;51.578;7.268;2023-02-25T10:00:06;6.87;;;1.60;;
15271;SDS011;7737;51.578;7.268;2023-02-25T10:02:45;6.57;;;1.43;;
15271;SDS011;7737;51.578;7.268;2023-02-25T10:05:19;6.60;;;1.33;;
15271;SDS011;7737;51.578;7.268;2023-02-25T10:07:55;6.27;;;0.97;;
15271;SDS011;7737;51.578;7.268;2023-02-25T10:10:33;3.90;;;0.83;;
15271;SDS011;7737;51.578;7.268;2023-02-25T10:13:10;2.63;;;1.10;;
15271;SDS011;7737;51.578;7.268;2023-02-25T10:15:48;4.83;;;0.90;;
15271;SDS011;7737;51.578;7.268;2023-02-25T10:18:23;3.80;;;1.10;;
15271;SDS011;7737;51.578;7.268;2023-02-25T10:21:02;2.93;;;0.90;;
15271;SDS011;7737;51.578;7.268;2023-02-25T10:23:41;3.93;;;1.03;;
15271;SDS011;7737;51.578;7.268;2023-02-25T10:26:24;3.53;;;0.80;;
15271;SDS011;7737;51.578;7.268;2023-02-25T10:28:55;5.23;;;1.03;;
15271;SDS011;7737;51.578;7.268;2023-02-25T10:31:25;3.53;;;1.00;;
15271;SDS011;7737;51.578;7.268;2023-02-25T10:33:56;3.37;;;0.97;;
15271;SDS011;7737;51.578;7.268;2023-02-25T10:36:29;3.30;;;1.00;;
15271;SDS011;7737;51.578;7.268;2023-02-25T10:38:58;4.00;;;0.73;;
15271;SDS011;7737;51.578;7.268;2023-02-25T10:41:25;3.97;;;0.80;;
15271;SDS011;7737;51.578;7.268;2023-02-25T10:43:53;4.40;;;1.10;;
15271;SDS011;7737;51.578;7.268;2023-02-25T10:46:21;4.83;;;1.20;;
15271;SDS011;7737;51.578;7.268;2023-02-25T10:48:55;8.43;;;1.10;;
15271;SDS011;7737;51.578;7.268;2023-02-25T10:51:24;4.70;;;1.17;;
15271;SDS011;7737;51.578;7.268;2023-02-25T10:54:04;9.13;;;1.50;;
15271;SDS011;7737;51.578;7.268;2023-02-25T10:56:33;6.60;;;1.43;;
15271;SDS011;7737;51.578;7.268;2023-02-25T10:59:09;8.73;;;1.60;;
15271;SDS011;7737;51.578;7.268;2023-02-25T11:01:50;5.63;;;1.37;;
15271;SDS011;7737;51.578;7.268;2023-02-25T11:04:19;5.47;;;1.30;;
15271;SDS011;7737;51.578;7.268;2023-02-25T11:06:49;7.30;;;1.40;;
15271;SDS011;7737;51.578;7.268;2023-02-25T11:09:31;8.17;;;1.60;;
15271;SDS011;7737;51.578;7.268;2023-02-25T11:12:09;7.43;;;1.50;;
15271;SDS011;7737;51.578;7.268;2023-02-25T11:14:43;6.93;;;1.43;;
15271;SDS011;7737;51.578;7.268;2023-02-25T11:17:12;6.10;;;1.43;;
15271;SDS011;7737;51.578;7.268;2023-02-25T11:19:44;6.77;;;1.73;;
15271;SDS011;7737;51.578;7.268;2023-02-25T11:22:15;8.67;;;1.70;;
15271;SDS011;7737;51.578;7.268;2023-02-25T11:24:44;9.17;;;1.50;;
15271;SDS011;7737;51.578;7.268;2023-02-25T11:27:23;5.37;;;1.47;;
15271;SDS011;7737;51.578;7.268;2023-02-25T11:29:58;9.13;;;1.70;;
15271;SDS011;7737;51.578;7.268;2023-02-25T11:32:30;5.20;;;1.30;;
15271;SDS011;7737;51.578;7.268;2023-02-25T11:34:58;6.57;;;1.57;;
15271;SDS011;7737;51.578;7.268;2023-02-25T11:37:34;7.00;;;1.67;;
15271;SDS011;7737;51.578;7.268;2023-02-25T11:40:13;7.70;;;1.80;;
15271;SDS011;7737;51.578;7.268;2023-02-25T11:42:51;6.93;;;1.80;;
15271;SDS011;7737;51.578;7.268;2023-02-25T11:45:25;5.77;;;1.30;;
15271;SDS011;7737;51.578;7.268;2023-02-25T11:47:54;8.27;;;1.73;;
15271;SDS011;7737;51.578;7.268;2023-02-25T11:50:22;7.90;;;1.60;;
15271;SDS011;7737;51.578;7.268;2023-02-25T11:52:55;5.57;;;1.50;;
15271;SDS011;7737;51.578;7.268;2023-02-25T11:55:39;5.97;;;1.57;;
15271;SDS011;7737;51.578;7.268;2023-02-25T11:58:19;7.60;;;1.73;;
15271;SDS011;7737;51.578;7.268;2023-02-25T12:00:59;4.93;;;1.47;;
15271;SDS011;7737;51.578;7.268;2023-02-25T12:03:45;6.57;;;1.50;;
15271;SDS011;7737;51.578;7.268;2023-02-25T12:06:27;7.73;;;1.80;;
15271;SDS011;7737;51.578;7.268;2023-02-25T12:09:19;6.93;;;1.57;;
15271;SDS011;7737;51.578;7.268;2023-02-25T12:12:40;4.43;;;1.57;;
15271;SDS011;7737;51.578;7.268;2023-02-25T12:18:37;4.20;;;1.10;;
15271;SDS011;7737;51.578;7.268;2023-02-25T12:21:32;5.20;;;1.30;;
15271;SDS011;7737;51.578;7.268;2023-02-25T12:24:24;5.07;;;1.30;;
15271;SDS011;7737;51.578;7.268;2023-02-25T12:27:08;5.40;;;1.53;;
15271;SDS011;7737;51.578;7.268;2023-02-25T12:29:57;4.27;;;1.10;;
15271;SDS011;7737;51.578;7.268;2023-02-25T12:32:44;5.03;;;1.50;;
15271;SDS011;7737;51.578;7.268;2023-02-25T12:35:27;6.10;;;1.10;;
15271;SDS011;7737;51.578;7.268;2023-02-25T12:38:18;7.10;;;1.23;;
15271;SDS011;7737;51.578;7.268;2023-02-25T12:41:23;3.80;;;1.30;;
15271;SDS011;7737;51.578;7.268;2023-02-25T12:44:06;6.43;;;1.30;;
15271;SDS011;7737;51.578;7.268;2023-02-25T12:46:49;6.50;;;1.40;;
15271;SDS011;7737;51.578;7.268;2023-02-25T12:49:37;7.53;;;1.73;;
15271;SDS011;7737;51.578;7.268;2023-02-25T12:52:23;4.70;;;1.17;;
15271;SDS011;7737;51.578;7.268;2023-02-25T12:55:08;3.83;;;1.10;;
15271;SDS011;7737;51.578;7.268;2023-02-25T12:57:45;3.90;;;1.00;;
15271;SDS011;7737;51.578;7.268;2023-02-25T13:03:33;5.00;;;1.30;;
15271;SDS011;7737;51.578;7.268;2023-02-25T13:09:11;7.97;;;1.30;;
15271;SDS011;7737;51.578;7.268;2023-02-25T13:11:51;4.33;;;1.10;;
15271;SDS011;7737;51.578;7.268;2023-02-25T13:14:31;4.40;;;1.33;;
15271;SDS011;7737;51.578;7.268;2023-02-25T13:17:12;2.90;;;0.90;;
15271;SDS011;7737;51.578;7.268;2023-02-25T13:20:18;4.67;;;1.03;;
15271;SDS011;7737;51.578;7.268;2023-02-25T13:23:11;3.97;;;1.73;;
15271;SDS011;7737;51.578;7.268;2023-02-25T13:31:56;2.27;;;0.93;;
15271;SDS011;7737;51.578;7.268;2023-02-25T13:34:41;2.23;;;0.67;;
15271;SDS011;7737;51.578;7.268;2023-02-25T13:37:34;1.57;;;0.50;;
15271;SDS011;7737;51.578;7.268;2023-02-25T13:40:19;2.10;;;0.60;;
15271;SDS011;7737;51.578;7.268;2023-02-25T13:43:01;2.03;;;0.80;;
15271;SDS011;7737;51.578;7.268;2023-02-25T13:45:44;3.07;;;0.50;;
15271;SDS011;7737;51.578;7.268;2023-02-25T13:51:15;3.17;;;0.70;;
15271;SDS011;7737;51.578;7.268;2023-02-25T13:54:03;2.20;;;0.60;;
15271;SDS011;7737;51.578;7.268;2023-02-25T13:56:51;2.70;;;0.90;;
15271;SDS011;7737;51.578;7.268;2023-02-25T13:59:32;1.93;;;0.60;;
15271;SDS011;7737;51.578;7.268;2023-02-25T14:02:16;3.13;;;0.40;;
15271;SDS011;7737;51.578;7.268;2023-02-25T14:05:15;2.00;;;0.50;;
15271;SDS011;7737;51.578;7.268;2023-02-25T14:08:11;2.80;;;0.70;;
15271;SDS011;7737;51.578;7.268;2023-02-25T14:10:51;2.17;;;0.60;;
15271;SDS011;7737;51.578;7.268;2023-02-25T14:13:44;2.37;;;0.70;;
15271;SDS011;7737;51.578;7.268;2023-02-25T14:16:27;1.53;;;0.60;;
15271;SDS011;7737;51.578;7.268;2023-02-25T14:19:07;2.73;;;0.60;;
15271;SDS011;7737;51.578;7.268;2023-02-25T14:21:49;2.33;;;0.60;;
15271;SDS011;7737;51.578;7.268;2023-02-25T14:24:41;2.27;;;0.90;;
15271;SDS011;7737;51.578;7.268;2023-02-25T14:27:19;2.27;;;0.90;;
15271;SDS011;7737;51.578;7.268;2023-02-25T14:30:13;2.40;;;0.70;;
15271;SDS011;7737;51.578;7.268;2023-02-25T14:32:50;2.83;;;0.70;;
15271;SDS011;7737;51.578;7.268;2023-02-25T14:35:39;1.97;;;0.70;;
15271;SDS011;7737;51.578;7.268;2023-02-25T14:38:16;1.77;;;0.70;;
15271;SDS011;7737;51.578;7.268;2023-02-25T14:40:53;2.00;;;0.60;;
15271;SDS011;7737;51.578;7.268;2023-02-25T14:43:29;4.43;;;0.80;;
15271;SDS011;7737;51.578;7.268;2023-02-25T14:45:58;1.40;;;0.50;;
15271;SDS011;7737;51.578;7.268;2023-02-25T14:48:31;1.53;;;0.70;;
15271;SDS011;7737;51.578;7.268;2023-02-25T14:51:12;1.97;;;0.90;;
15271;SDS011;7737;51.578;7.268;2023-02-25T14:54:02;3.40;;;1.13;;
15271;SDS011;7737;51.578;7.268;2023-02-25T14:56:50;3.67;;;0.80;;
15271;SDS011;7737;51.578;7.268;2023-02-25T15:02:46;2.50;;;0.90;;
15271;SDS011;7737;51.578;7.268;2023-02-25T15:05:37;1.30;;;0.70;;
15271;SDS011;7737;51.578;7.268;2023-02-25T15:08:21;3.83;;;0.70;;
15271;SDS011;7737;51.578;7.268;2023-02-25T15:11:06;2.33;;;0.83;;
15271;SDS011;7737;51.578;7.268;2023-02-25T15:14:12;5.57;;;0.90;;
15271;SDS011;7737;51.578;7.268;2023-02-25T15:17:12;3.20;;;0.70;;
15271;SDS011;7737;51.578;7.268;2023-02-25T15:20:02;3.17;;;0.80;;
15271;SDS011;7737;51.578;7.268;2023-02-25T15:22:53;3.20;;;0.90;;
15271;SDS011;7737;51.578;7.268;2023-02-25T15:25:39;1.83;;;0.50;;
15271;SDS011;7737;51.578;7.268;2023-02-25T15:28:37;2.10;;;0.80;;
15271;SDS011;7737;51.578;7.268;2023-02-25T15:31:09;4.47;;;0.90;;
15271;SDS011;7737;51.578;7.268;2023-02-25T15:33:55;4.90;;;1.00;;
15271;SDS011;7737;51.578;7.268;2023-02-25T15:37:10;3.13;;;1.07;;
15271;SDS011;7737;51.578;7.268;2023-02-25T15:39:46;1.90;;;0.83;;
15271;SDS011;7737;51.578;7.268;2023-02-25T15:42:14;2.13;;;0.80;;
15271;SDS011;7737;51.578;7.268;2023-02-25T15:44:41;2.90;;;0.90;;
15271;SDS011;7737;51.578;7.268;2023-02-25T15:47:27;4.03;;;0.80;;